createdAt,value
2019-03-28T00:01:35.054Z,30.90
2019-03-28T00:04:11.420Z,20.77
2019-03-28T00:06:46.127Z,20.83
2019-03-28T00:09:20.671Z,25.80
2019-03-28T00:11:55.279Z,26.97
2019-03-28T00:14:31.360Z,25.13
2019-03-28T00:17:05.924Z,31.40
2019-03-28T00:19:40.528Z,25.47
2019-03-28T00:22:21.686Z,22.73
2019-03-28T00:25:04.092Z,23.17
2019-03-28T00:27:38.703Z,29.70
2019-03-28T00:30:14.589Z,24.10
2019-03-28T00:32:49.119Z,28.63
2019-03-28T00:35:26.203Z,23.90
2019-03-28T00:38:00.906Z,27.43
2019-03-28T00:40:37.275Z,29.07
2019-03-28T00:43:11.779Z,27.67
2019-03-28T00:45:46.834Z,25.40
2019-03-28T00:48:21.347Z,30.20
2019-03-28T00:50:56.017Z,28.20
2019-03-28T00:53:31.150Z,26.23
2019-03-28T00:56:06.243Z,26.73
2019-03-28T00:58:40.790Z,30.40
2019-03-28T01:01:15.338Z,28.90
2019-03-28T01:03:49.920Z,24.10
2019-03-28T01:06:26.809Z,26.17
2019-03-28T01:09:04.083Z,24.87
2019-03-28T01:11:37.757Z,31.97
2019-03-28T01:14:12.229Z,26.20
2019-03-28T01:16:47.061Z,28.80
2019-03-28T01:19:21.625Z,25.00
2019-03-28T01:21:57.126Z,28.37
2019-03-28T01:24:31.726Z,22.30
2019-03-28T01:27:06.208Z,24.90
2019-03-28T01:29:40.724Z,23.07
2019-03-28T01:32:16.756Z,35.73
2019-03-28T01:34:51.341Z,26.63
2019-03-28T01:37:27.749Z,26.10
2019-03-28T01:40:04.218Z,22.10
2019-03-28T01:42:38.758Z,20.50
2019-03-28T01:45:13.575Z,26.13
2019-03-28T01:47:48.130Z,24.70
2019-03-28T01:50:24.497Z,25.60
2019-03-28T01:52:59.086Z,24.33
2019-03-28T01:55:33.563Z,23.17
2019-03-28T01:58:10.088Z,26.77
2019-03-28T02:00:44.987Z,24.77
2019-03-28T02:03:19.712Z,23.60
2019-03-28T02:05:54.269Z,26.63
2019-03-28T02:08:28.831Z,27.43
2019-03-28T02:11:03.431Z,23.60
2019-03-28T02:13:39.926Z,23.13
2019-03-28T02:16:14.565Z,27.43
2019-03-28T02:18:49.642Z,24.77
2019-03-28T02:21:24.227Z,23.07
2019-03-28T02:23:58.784Z,22.90
2019-03-28T02:26:34.215Z,24.70
2019-03-28T02:29:08.973Z,29.30
2019-03-28T02:31:43.529Z,26.50
2019-03-28T02:34:18.165Z,21.30
2019-03-28T02:36:52.873Z,23.47
2019-03-28T02:39:27.694Z,19.77
2019-03-28T02:42:02.329Z,27.77
2019-03-28T02:44:37.499Z,29.10
2019-03-28T02:47:12.187Z,25.50
2019-03-28T02:49:46.754Z,22.93
2019-03-28T02:52:21.688Z,25.07
2019-03-28T02:54:58.200Z,26.63
2019-03-28T02:57:41.066Z,23.20
2019-03-28T03:00:10.091Z,22.63
2019-03-28T03:02:44.815Z,24.93
2019-03-28T03:05:21.198Z,28.80
2019-03-28T03:07:55.771Z,21.60
2019-03-28T03:10:31.762Z,21.30
2019-03-28T03:13:06.786Z,26.33
2019-03-28T03:15:41.690Z,23.13
2019-03-28T03:18:21.278Z,22.60
2019-03-28T03:20:54.404Z,23.13
2019-03-28T03:23:29.277Z,29.47
2019-03-28T03:26:05.506Z,28.40
2019-03-28T03:28:40.214Z,21.93
2019-03-28T03:31:20.479Z,21.43
2019-03-28T03:33:53.295Z,27.90
2019-03-28T03:36:27.854Z,25.00
2019-03-28T03:39:02.642Z,28.30
2019-03-28T03:41:37.349Z,20.63
2019-03-28T03:44:11.927Z,26.60
2019-03-28T03:46:47.535Z,25.40
2019-03-28T03:49:22.064Z,31.07
2019-03-28T03:51:57.006Z,26.93
2019-03-28T03:54:31.758Z,32.90
2019-03-28T03:57:06.119Z,23.77
2019-03-28T03:59:41.066Z,33.20
2019-03-28T04:02:15.653Z,26.70
2019-03-28T04:04:50.327Z,29.80
2019-03-28T04:07:26.567Z,26.20
2019-03-28T04:10:01.168Z,32.70
2019-03-28T04:12:35.821Z,33.43
2019-03-28T04:15:10.601Z,26.87
2019-03-28T04:17:47.729Z,27.93
2019-03-28T04:20:22.739Z,30.37
2019-03-28T04:22:57.809Z,32.70
2019-03-28T04:25:32.383Z,38.30
2019-03-28T04:28:08.318Z,30.43
2019-03-28T04:30:44.266Z,26.80
2019-03-28T04:33:18.803Z,28.53
2019-03-28T04:35:53.841Z,37.30
2019-03-28T04:38:28.730Z,29.43
2019-03-28T04:41:03.291Z,29.20
2019-03-28T04:43:37.935Z,23.67
2019-03-28T04:46:12.539Z,28.07
2019-03-28T04:48:47.165Z,27.67
2019-03-28T04:51:21.731Z,33.40
2019-03-28T04:53:58.147Z,37.53
2019-03-28T04:56:32.587Z,41.77
2019-03-28T04:59:09.152Z,35.23
2019-03-28T05:01:43.784Z,36.77
2019-03-28T05:04:21.122Z,34.77
2019-03-28T05:06:54.764Z,28.20
2019-03-28T05:09:29.422Z,35.27
2019-03-28T05:12:04.232Z,30.87
2019-03-28T05:14:38.789Z,28.80
2019-03-28T05:17:17.410Z,31.23
2019-03-28T05:19:54.125Z,35.27
2019-03-28T05:22:29.050Z,38.60
2019-03-28T05:25:03.606Z,36.47
2019-03-28T05:27:38.231Z,29.70
2019-03-28T05:30:13.981Z,35.00
2019-03-28T05:32:48.677Z,33.13
2019-03-28T05:35:23.286Z,37.40
2019-03-28T05:37:57.795Z,36.77
2019-03-28T05:40:34.066Z,39.83
2019-03-28T05:43:12.210Z,33.53
2019-03-28T05:45:47.664Z,36.53
2019-03-28T05:48:22.259Z,34.77
2019-03-28T05:50:56.879Z,39.67
2019-03-28T05:53:31.542Z,43.10
2019-03-28T05:56:06.178Z,35.53
2019-03-28T05:58:40.622Z,32.13
2019-03-28T06:01:14.994Z,38.07
2019-03-28T06:03:49.436Z,33.60
2019-03-28T06:06:24.171Z,28.17
2019-03-28T06:08:58.919Z,34.40
2019-03-28T06:11:35.277Z,34.87
2019-03-28T06:14:10.212Z,31.50
2019-03-28T06:16:45.037Z,26.20
2019-03-28T06:19:20.016Z,26.70
2019-03-28T06:21:54.526Z,27.97
2019-03-28T06:24:29.029Z,25.60
2019-03-28T06:27:03.580Z,26.73
2019-03-28T06:29:38.085Z,22.60
2019-03-28T06:32:12.748Z,27.73
2019-03-28T06:34:47.431Z,22.07
2019-03-28T06:37:22.133Z,31.57
2019-03-28T06:39:58.420Z,24.23
2019-03-28T06:42:33.057Z,23.10
2019-03-28T06:45:09.763Z,20.17
2019-03-28T06:47:44.319Z,22.27
2019-03-28T06:50:19.029Z,21.07
2019-03-28T06:52:53.722Z,22.50
2019-03-28T06:55:28.212Z,21.20
2019-03-28T06:58:02.764Z,24.17
2019-03-28T07:00:39.240Z,19.33
2019-03-28T07:03:13.941Z,30.70
2019-03-28T07:05:48.839Z,28.63
2019-03-28T07:08:25.451Z,26.73
2019-03-28T07:11:00.632Z,30.37
2019-03-28T07:13:37.163Z,28.87
2019-03-28T07:16:13.526Z,18.83
2019-03-28T07:18:48.092Z,17.80
2019-03-28T07:21:22.568Z,19.00
2019-03-28T07:23:58.756Z,24.17
2019-03-28T07:26:33.308Z,21.50
2019-03-28T07:29:08.091Z,20.77
2019-03-28T07:31:42.671Z,19.77
2019-03-28T07:34:17.281Z,24.93
2019-03-28T07:36:51.868Z,14.97
2019-03-28T07:39:26.779Z,20.10
2019-03-28T07:42:01.843Z,23.43
2019-03-28T07:44:37.639Z,23.97
2019-03-28T07:47:12.584Z,15.33
2019-03-28T07:49:47.236Z,14.87
2019-03-28T07:52:24.469Z,17.93
2019-03-28T07:54:59.224Z,13.60
2019-03-28T07:57:34.815Z,19.07
2019-03-28T08:00:10.990Z,20.33
2019-03-28T08:02:47.303Z,15.80
2019-03-28T08:05:21.878Z,19.90
2019-03-28T08:07:56.554Z,20.80
2019-03-28T08:10:31.335Z,23.80
2019-03-28T08:13:07.590Z,21.67
2019-03-28T08:15:42.163Z,20.77
2019-03-28T08:18:16.746Z,19.10
2019-03-28T08:20:51.279Z,19.27
2019-03-28T08:23:26.813Z,16.97
2019-03-28T08:26:03.356Z,17.83
2019-03-28T08:28:37.954Z,18.40
2019-03-28T08:31:12.640Z,19.30
2019-03-28T08:33:49.062Z,16.07
2019-03-28T08:36:23.648Z,19.07
2019-03-28T08:38:58.675Z,18.90
2019-03-28T08:41:33.283Z,19.33
2019-03-28T08:44:08.026Z,18.17
2019-03-28T08:46:42.594Z,16.30
2019-03-28T08:49:17.236Z,12.47
2019-03-28T08:51:53.289Z,17.57
2019-03-28T08:54:28.038Z,16.10
2019-03-28T08:57:03.129Z,21.77
2019-03-28T08:59:39.482Z,16.30
2019-03-28T09:02:14.388Z,13.17
2019-03-28T09:04:50.720Z,13.40
2019-03-28T09:07:27.124Z,16.27
2019-03-28T09:10:01.927Z,14.13
2019-03-28T09:12:38.431Z,11.73
2019-03-28T09:15:14.489Z,20.67
2019-03-28T09:17:51.080Z,15.13
2019-03-28T09:20:25.891Z,9.70
2019-03-28T09:23:00.625Z,14.33
2019-03-28T09:25:35.143Z,15.03
2019-03-28T09:28:11.504Z,15.43
2019-03-28T09:30:49.382Z,14.37
2019-03-28T09:33:22.653Z,19.00
2019-03-28T09:35:57.334Z,14.07
2019-03-28T09:38:33.104Z,15.60
2019-03-28T09:41:09.598Z,12.17
2019-03-28T09:43:54.691Z,13.70
2019-03-28T09:46:20.635Z,15.37
2019-03-28T09:48:55.186Z,10.53
2019-03-28T09:51:31.151Z,12.80
2019-03-28T09:54:05.821Z,13.77
2019-03-28T09:56:42.332Z,12.37
2019-03-28T09:59:18.597Z,16.00
2019-03-28T10:01:53.135Z,9.20
2019-03-28T10:04:28.868Z,9.77
2019-03-28T10:07:03.484Z,10.83
2019-03-28T10:09:41.296Z,10.43
2019-03-28T10:12:16.303Z,10.67
2019-03-28T10:14:52.699Z,12.00
2019-03-28T10:17:28.758Z,10.87
2019-03-28T10:20:03.179Z,9.53
2019-03-28T10:22:37.910Z,10.57
2019-03-28T10:25:14.489Z,10.63
2019-03-28T10:27:51.069Z,9.50
2019-03-28T10:30:43.228Z,11.07
2019-03-28T10:33:19.437Z,11.70
2019-03-28T10:35:54.019Z,10.60
2019-03-28T10:38:29.507Z,8.93
2019-03-28T10:41:04.178Z,7.73
2019-03-28T10:43:38.662Z,17.30
2019-03-28T10:46:13.785Z,11.10
2019-03-28T10:48:49.963Z,11.23
2019-03-28T10:51:24.527Z,9.10
2019-03-28T10:53:59.015Z,16.50
2019-03-28T10:56:35.475Z,9.57
2019-03-28T10:59:22.734Z,11.53
2019-03-28T11:01:50.525Z,12.13
2019-03-28T11:04:23.054Z,9.10
2019-03-28T11:06:59.408Z,5.70
2019-03-28T11:09:34.937Z,4.30
2019-03-28T11:12:11.521Z,10.30
2019-03-28T11:14:46.524Z,10.67
2019-03-28T11:17:23.263Z,10.53
2019-03-28T11:19:58.745Z,8.47
2019-03-28T11:22:35.066Z,16.60
2019-03-28T11:25:10.195Z,10.03
2019-03-28T11:27:47.065Z,6.27
2019-03-28T11:30:22.394Z,7.90
2019-03-28T11:32:58.780Z,7.50
2019-03-28T11:35:33.397Z,8.30
2019-03-28T11:38:09.813Z,10.80
2019-03-28T11:40:44.699Z,7.20
2019-03-28T11:43:21.283Z,7.10
2019-03-28T11:45:56.214Z,5.73
2019-03-28T11:48:32.937Z,6.43
2019-03-28T11:51:07.544Z,6.90
2019-03-28T11:53:42.362Z,4.87
2019-03-28T11:56:17.304Z,8.07
2019-03-28T11:58:51.836Z,8.83
2019-03-28T12:01:26.467Z,6.30
2019-03-28T12:04:03.254Z,9.97
2019-03-28T12:06:38.333Z,7.90
2019-03-28T12:09:12.975Z,7.67
2019-03-28T12:11:47.562Z,7.57
2019-03-28T12:14:24.158Z,11.40
2019-03-28T12:16:59.090Z,8.57
2019-03-28T12:19:33.706Z,5.50
2019-03-28T12:22:08.407Z,8.70
2019-03-28T12:24:43.443Z,4.67
2019-03-28T12:27:20.155Z,5.73
2019-03-28T12:29:56.837Z,7.10
2019-03-28T12:32:31.496Z,7.20
2019-03-28T12:35:07.096Z,8.07
2019-03-28T12:37:43.614Z,6.97
2019-03-28T12:40:18.678Z,8.50
2019-03-28T12:42:53.752Z,5.13
2019-03-28T12:45:29.935Z,7.00
2019-03-28T12:48:06.185Z,10.03
2019-03-28T12:50:42.894Z,8.00
2019-03-28T12:53:18.090Z,8.30
2019-03-28T12:55:54.073Z,10.03
2019-03-28T12:58:28.590Z,8.17
2019-03-28T13:01:03.298Z,11.47
2019-03-28T13:03:45.449Z,13.43
2019-03-28T13:06:14.791Z,12.07
2019-03-28T13:08:51.186Z,11.37
2019-03-28T13:11:27.254Z,9.00
2019-03-28T13:14:01.965Z,9.90
2019-03-28T13:16:38.431Z,11.37
2019-03-28T13:19:13.130Z,11.47
2019-03-28T13:21:49.465Z,9.27
2019-03-28T13:24:26.001Z,11.27
2019-03-28T13:27:00.769Z,12.43
2019-03-28T13:29:37.598Z,12.30
2019-03-28T13:32:12.120Z,8.87
2019-03-28T13:34:48.624Z,11.07
2019-03-28T13:37:26.189Z,10.83
2019-03-28T13:40:00.747Z,8.13
2019-03-28T13:42:35.442Z,10.70
2019-03-28T13:45:14.547Z,9.43
2019-03-28T13:47:49.286Z,14.83
2019-03-28T13:50:25.526Z,8.93
2019-03-28T13:53:03.348Z,10.67
2019-03-28T13:55:38.065Z,8.30
2019-03-28T13:58:13.782Z,9.83
2019-03-28T14:00:48.730Z,14.83
2019-03-28T14:03:23.404Z,12.50
2019-03-28T14:05:58.514Z,12.80
2019-03-28T14:08:33.205Z,13.40
2019-03-28T14:11:09.219Z,7.20
2019-03-28T14:13:44.076Z,10.20
2019-03-28T14:16:19.440Z,12.47
2019-03-28T14:18:54.165Z,13.63
2019-03-28T14:21:30.635Z,15.60
2019-03-28T14:24:05.509Z,12.10
2019-03-28T14:26:42.575Z,13.00
2019-03-28T14:29:18.171Z,17.20
2019-03-28T14:31:52.833Z,11.97
2019-03-28T14:34:28.597Z,16.57
2019-03-28T14:37:03.485Z,10.43
2019-03-28T14:39:38.098Z,11.20
2019-03-28T14:42:13.501Z,11.73
2019-03-28T14:44:48.661Z,12.63
2019-03-28T14:47:24.239Z,7.47
2019-03-28T14:49:59.346Z,13.07
2019-03-28T14:52:35.227Z,9.73
2019-03-28T14:55:10.610Z,9.90
2019-03-28T14:57:46.623Z,8.80
2019-03-28T15:00:47.638Z,8.00
2019-03-28T15:03:26.912Z,7.60
2019-03-28T15:06:02.074Z,8.47
2019-03-28T15:08:38.871Z,10.17
2019-03-28T15:11:13.484Z,11.80
2019-03-28T15:13:50.915Z,6.73
2019-03-28T15:16:27.181Z,5.17
2019-03-28T15:19:05.185Z,5.60
2019-03-28T15:21:39.808Z,5.73
2019-03-28T15:24:15.678Z,5.57
2019-03-28T15:26:50.562Z,13.33
2019-03-28T15:29:25.417Z,8.77
2019-03-28T15:32:00.147Z,15.03
2019-03-28T15:34:34.682Z,11.57
2019-03-28T15:37:09.238Z,9.87
2019-03-28T15:39:43.736Z,10.83
2019-03-28T15:42:20.007Z,10.60
2019-03-28T15:44:55.008Z,10.73
2019-03-28T15:47:33.557Z,14.23
2019-03-28T15:50:09.158Z,16.07
2019-03-28T15:52:43.926Z,16.23
2019-03-28T15:55:20.269Z,16.03
2019-03-28T15:57:54.971Z,17.13
2019-03-28T16:00:31.449Z,15.30
2019-03-28T16:03:06.185Z,17.00
2019-03-28T16:05:41.184Z,13.63
2019-03-28T16:08:16.296Z,14.40
2019-03-28T16:10:50.917Z,7.77
2019-03-28T16:13:25.634Z,6.53
2019-03-28T16:16:01.910Z,9.63
2019-03-28T16:18:36.446Z,8.30
2019-03-28T16:21:12.850Z,11.27
2019-03-28T16:23:47.630Z,7.77
2019-03-28T16:26:22.214Z,5.63
2019-03-28T16:28:56.890Z,8.17
2019-03-28T16:31:31.517Z,7.70
2019-03-28T16:34:07.500Z,5.20
2019-03-28T16:36:42.318Z,10.13
2019-03-28T16:39:20.054Z,9.60
2019-03-28T16:41:56.148Z,7.23
2019-03-28T16:44:30.735Z,10.60
2019-03-28T16:47:05.582Z,8.37
2019-03-28T16:49:40.312Z,8.10
2019-03-28T16:52:16.657Z,8.67
2019-03-28T16:54:51.827Z,6.73
2019-03-28T16:57:26.475Z,5.43
2019-03-28T17:00:01.006Z,10.90
2019-03-28T17:02:37.274Z,8.43
2019-03-28T17:05:13.149Z,10.90
2019-03-28T17:07:48.164Z,11.90
2019-03-28T17:10:51.890Z,5.47
2019-03-28T17:13:27.214Z,9.73
2019-03-28T17:16:01.874Z,7.80
2019-03-28T17:18:37.932Z,11.60
2019-03-28T17:21:13.670Z,6.90
2019-03-28T17:23:48.457Z,10.80
2019-03-28T17:26:23.003Z,9.30
2019-03-28T17:28:59.044Z,7.07
2019-03-28T17:31:33.960Z,9.60
2019-03-28T17:34:09.115Z,8.63
2019-03-28T17:36:44.452Z,9.43
2019-03-28T17:39:19.183Z,9.07
2019-03-28T17:41:53.907Z,12.50
2019-03-28T17:44:28.601Z,13.30
2019-03-28T17:47:05.058Z,11.50
2019-03-28T17:49:40.104Z,7.00
2019-03-28T17:52:15.122Z,10.23
2019-03-28T17:54:49.707Z,14.37
2019-03-28T17:57:24.345Z,7.27
2019-03-28T18:00:00.808Z,14.20
2019-03-28T18:02:35.768Z,12.73
2019-03-28T18:05:12.899Z,9.87
2019-03-28T18:07:47.720Z,10.10
2019-03-28T18:10:24.316Z,14.33
2019-03-28T18:13:02.067Z,14.17
2019-03-28T18:15:36.641Z,11.40
2019-03-28T18:18:12.467Z,10.23
2019-03-28T18:20:47.133Z,9.17
2019-03-28T18:23:21.766Z,11.00
2019-03-28T18:25:56.772Z,10.17
2019-03-28T18:28:31.737Z,14.33
2019-03-28T18:31:06.766Z,9.33
2019-03-28T18:33:41.333Z,7.50
2019-03-28T18:36:16.636Z,10.90
2019-03-28T18:38:52.564Z,7.53
2019-03-28T18:41:27.936Z,10.30
2019-03-28T18:44:04.046Z,13.83
2019-03-28T18:46:41.480Z,9.63
2019-03-28T18:49:16.621Z,8.67
2019-03-28T18:51:51.360Z,9.43
2019-03-28T18:54:25.978Z,10.17
2019-03-28T18:57:03.293Z,11.10
2019-03-28T18:59:40.038Z,11.33
2019-03-28T19:02:16.377Z,11.33
2019-03-28T19:04:53.080Z,11.60
2019-03-28T19:07:28.067Z,11.73
2019-03-28T19:10:06.598Z,14.93
2019-03-28T19:12:41.309Z,11.50
2019-03-28T19:15:17.538Z,13.63
2019-03-28T19:17:52.267Z,11.03
2019-03-28T19:20:29.314Z,16.03
2019-03-28T19:23:07.257Z,11.23
2019-03-28T19:25:46.825Z,18.53
2019-03-28T19:28:28.713Z,16.53
2019-03-28T19:31:00.520Z,13.07
2019-03-28T19:33:38.136Z,18.70
2019-03-28T19:36:13.533Z,21.53
2019-03-28T19:38:51.944Z,24.27
2019-03-28T19:41:26.560Z,14.60
2019-03-28T19:44:02.353Z,15.50
2019-03-28T19:46:36.988Z,16.50
2019-03-28T19:49:13.063Z,19.40
2019-03-28T19:51:47.948Z,18.80
2019-03-28T19:54:25.739Z,26.50
2019-03-28T19:57:01.632Z,17.97
2019-03-28T19:59:37.688Z,23.83
2019-03-28T20:02:14.442Z,24.80
2019-03-28T20:04:49.607Z,20.37
2019-03-28T20:07:25.921Z,16.53
2019-03-28T20:10:10.775Z,20.40
2019-03-28T20:12:40.067Z,18.37
2019-03-28T20:15:15.438Z,22.40
2019-03-28T20:17:51.064Z,23.00
2019-03-28T20:20:27.256Z,14.77
2019-03-28T20:23:04.483Z,16.33
2019-03-28T20:25:42.766Z,17.83
2019-03-28T20:28:16.978Z,11.90
2019-03-28T20:30:51.728Z,19.40
2019-03-28T20:33:27.223Z,26.07
2019-03-28T20:36:30.200Z,13.67
2019-03-28T20:38:39.491Z,18.27
2019-03-28T20:41:14.366Z,16.53
2019-03-28T20:43:49.772Z,12.60
2019-03-28T20:46:24.741Z,19.43
2019-03-28T20:49:00.224Z,16.93
2019-03-28T20:51:34.981Z,16.50
2019-03-28T20:54:11.768Z,19.73
2019-03-28T20:56:49.351Z,18.67
2019-03-28T20:59:26.842Z,16.80
2019-03-28T21:02:01.787Z,17.50
2019-03-28T21:04:36.788Z,16.90
2019-03-28T21:07:14.236Z,17.30
2019-03-28T21:09:49.154Z,14.50
2019-03-28T21:12:23.883Z,12.90
2019-03-28T21:14:58.696Z,25.13
2019-03-28T21:17:34.396Z,14.17
2019-03-28T21:20:11.923Z,10.80
2019-03-28T21:22:46.796Z,24.47
2019-03-28T21:25:23.477Z,15.43
2019-03-28T21:27:58.828Z,14.17
2019-03-28T21:30:46.573Z,17.87
2019-03-28T21:33:15.159Z,18.53
2019-03-28T21:35:50.144Z,14.30
2019-03-28T21:38:25.524Z,16.23
2019-03-28T21:41:00.786Z,16.30
2019-03-28T21:43:35.535Z,14.70
2019-03-28T21:46:10.700Z,16.17
2019-03-28T21:48:47.671Z,14.40
2019-03-28T21:51:22.630Z,15.63
2019-03-28T21:53:59.773Z,16.00
2019-03-28T21:56:34.195Z,14.70
2019-03-28T21:59:09.008Z,19.10
2019-03-28T22:01:43.976Z,17.60
2019-03-28T22:04:20.516Z,13.97
2019-03-28T22:06:55.482Z,21.93
2019-03-28T22:09:30.215Z,14.10
2019-03-28T22:12:04.895Z,15.87
2019-03-28T22:14:39.897Z,13.83
2019-03-28T22:17:15.180Z,13.17
2019-03-28T22:19:51.725Z,19.50
2019-03-28T22:22:28.860Z,18.20
2019-03-28T22:25:05.645Z,13.00
2019-03-28T22:27:40.252Z,17.60
2019-03-28T22:30:16.111Z,19.00
2019-03-28T22:32:51.166Z,21.63
2019-03-28T22:35:25.957Z,15.90
2019-03-28T22:38:01.164Z,20.30
2019-03-28T22:40:37.444Z,15.70
2019-03-28T22:43:12.126Z,19.67
2019-03-28T22:45:46.726Z,17.00
2019-03-28T22:48:21.801Z,14.30
2019-03-28T22:50:58.360Z,16.67
2019-03-28T22:53:32.898Z,17.63
2019-03-28T22:56:07.722Z,21.27
2019-03-28T22:58:42.208Z,19.83
2019-03-28T23:01:17.051Z,15.23
2019-03-28T23:03:53.558Z,16.20
2019-03-28T23:06:28.171Z,15.50
2019-03-28T23:09:02.734Z,17.70
2019-03-28T23:11:40.654Z,17.67
2019-03-28T23:14:17.099Z,15.20
2019-03-28T23:16:51.613Z,16.03
2019-03-28T23:19:26.178Z,16.40
2019-03-28T23:22:00.877Z,15.83
2019-03-28T23:24:35.354Z,17.87
2019-03-28T23:27:11.931Z,17.37
2019-03-28T23:29:46.389Z,16.50
2019-03-28T23:32:22.398Z,19.73
2019-03-28T23:34:57.244Z,13.20
2019-03-28T23:37:34.019Z,15.03
2019-03-28T23:40:09.669Z,15.23
2019-03-28T23:42:44.283Z,16.93
2019-03-28T23:45:19.175Z,18.67
2019-03-28T23:47:57.642Z,19.83
2019-03-28T23:50:33.030Z,23.13
2019-03-28T23:53:09.250Z,17.60
2019-03-28T23:55:44.955Z,18.73
2019-03-28T23:58:21.296Z,23.00
